Ormsby, Minnesota
Current Conditions -  °F | °C
As of 9:15 PM on Saturday 22 Nov 2014 (Local Time) from KJYG Reporting Station
Haze Haze  
Wind Chill: 38°   Ceiling: 700
Heat Index: 46°   Visibility: 5mi
Dew Point: 43°   Wind: 26mph
Humidity: 87%   Direction: 180°S
Pressure: 29.49"   Gusts: 36mph
Location:  43.85°N, 94.7°W
Report Text: KJYG 230315Z AUTO 18023G31KT 5SM BR OVC007 08/06 A2949 RMK AO2
Loading
Personal Weather Stations






























Interactive Weather Map New forecast layout! Learn more

10-Day Weather Forecast

Advertisements
Track Severe Weather on mobile